San Pedro, California
Current Conditions -  °F | °C
As of 7:48 PM on Wednesday 28 Jan 2015 (Local Time) from KTOA Reporting Station
Broken Clouds Broken Clouds  
Wind Chill: 64°   Ceiling: 20000
Heat Index: 64°   Visibility: 20mi
Dew Point: 52°   Wind: 0mph
Humidity: 64%   Direction: NA
Pressure: 30.09"   Gusts: NA
Location:  33.74°N, 118.29°W
Report Text: KTOA 290348Z 00000KT 20SM BKN200 18/11 A3009
Loading
Personal Weather Stations






























Interactive Weather Map New forecast layout! Learn more

10-Day Weather Forecast

Advertisements
Track Severe Weather on mobile